Time;durP1;ratioP1;P1;durP2;ratioP2;P2;SDS_P1;SDS_P2;PMS_P1;PMS_P2;Temp;Humidity;BMP_temperature;BMP_pressure;BME280_temperature;BME280_humidity;BME280_pressure;Samples;Min_cycle;Max_cycle;Signal;HPM_P1;HPM_P2
2021/08/16 00:01:11;;;;;;;9.90;8.40;;;640.80;1459.20;;;;;;5070133;28;20025;-60
2021/08/16 00:03:36;;;;;;;9.35;8.00;;;640.70;1484.80;;;;;;5069885;28;20029;-58
2021/08/16 00:06:02;;;;;;;9.25;8.10;;;640.70;1561.60;;;;;;5069960;28;20070;-58
2021/08/16 00:08:28;;;;;;;8.38;7.18;;;640.50;1536.00;;;;;;5069773;28;20027;-59
2021/08/16 00:10:54;;;;;;;11.98;7.82;;;640.40;1536.00;;;;;;5070271;28;20537;-58
2021/08/16 00:13:20;;;;;;;10.23;8.57;;;640.50;1510.40;;;;;;5070177;28;20024;-58
2021/08/16 00:15:46;;;;;;;16.38;10.75;;;640.40;1587.20;;;;;;5069646;28;20379;-58
2021/08/16 00:18:12;;;;;;;17.92;11.45;;;640.00;1664.00;;;;;;5070060;28;20063;-58
2021/08/16 00:20:38;;;;;;;15.02;11.18;;;615.10;1715.20;;;;;;5069936;28;20056;-58
2021/08/16 00:23:04;;;;;;;13.80;10.52;;;615.00;1740.80;;;;;;5069922;28;20066;-57
2021/08/16 00:25:30;;;;;;;12.48;11.25;;;615.00;1715.20;;;;;;5069823;28;20133;-56
2021/08/16 00:27:56;;;;;;;14.05;12.07;;;614.90;1689.60;;;;;;5069986;28;20175;-59
2021/08/16 00:30:22;;;;;;;13.60;10.93;;;614.90;1689.60;;;;;;5070196;28;20387;-56
2021/08/16 00:32:49;;;;;;;14.95;11.40;;;614.80;1715.20;;;;;;5070027;28;20024;-57
2021/08/16 00:35:15;;;;;;;14.63;9.93;;;614.80;1715.20;;;;;;5069829;28;20032;-57
2021/08/16 00:37:42;;;;;;;14.05;10.00;;;614.80;1740.80;;;;;;5069743;28;20036;-58
2021/08/16 00:40:08;;;;;;;16.50;11.10;;;614.80;1740.80;;;;;;5069798;28;20029;-58
2021/08/16 00:42:35;;;;;;;16.70;12.10;;;614.80;1715.20;;;;;;5069817;28;20799;-57
2021/08/16 00:45:03;;;;;;;16.25;11.27;;;614.80;1715.20;;;;;;5069761;28;20029;-57
2021/08/16 00:47:29;;;;;;;12.35;11.15;;;614.70;1740.80;;;;;;5069848;28;20390;-59
2021/08/16 00:49:55;;;;;;;14.30;11.43;;;614.60;1766.40;;;;;;5069801;28;20021;-57
2021/08/16 00:52:21;;;;;;;14.68;11.60;;;589.70;1843.20;;;;;;5069889;28;20548;-58
2021/08/16 00:54:47;;;;;;;12.45;11.18;;;589.50;1868.80;;;;;;5069311;28;20048;-57
2021/08/16 00:57:14;;;;;;;11.40;10.20;;;589.40;1868.80;;;;;;5069618;28;20413;-57
2021/08/16 00:59:39;;;;;;;12.60;11.30;;;589.50;1843.20;;;;;;5069635;28;20031;-57
2021/08/16 01:02:05;;;;;;;17.25;11.05;;;589.40;1868.80;;;;;;5073079;28;20032;-57
2021/08/16 01:04:31;;;;;;;10.85;9.75;;;589.50;1843.20;;;;;;5073193;28;20021;-59
2021/08/16 01:06:57;;;;;;;14.30;10.98;;;589.40;1868.80;;;;;;5072974;28;20044;-58
2021/08/16 01:09:22;;;;;;;12.82;11.50;;;589.30;1868.80;;;;;;5073304;28;20025;-57
2021/08/16 01:11:49;;;;;;;11.63;10.40;;;589.40;1843.20;;;;;;5072912;28;20028;-58
2021/08/16 01:14:16;;;;;;;13.32;11.93;;;589.50;1843.20;;;;;;5072851;28;20021;-58
2021/08/16 01:16:42;;;;;;;14.38;11.20;;;589.40;1843.20;;;;;;5072927;28;20028;-57
2021/08/16 01:19:08;;;;;;;22.52;11.93;;;589.50;1843.20;;;;;;5072879;28;20402;-60
2021/08/16 01:21:34;;;;;;;18.45;13.10;;;589.50;1843.20;;;;;;5072920;28;20020;-61
2021/08/16 01:24:00;;;;;;;21.75;16.20;;;589.50;1843.20;;;;;;5072736;28;20087;-59
2021/08/16 01:26:30;;;;;;;21.05;16.17;;;589.40;1843.20;;;;;;5072887;28;20036;-61
2021/08/16 01:28:56;;;;;;;20.20;18.08;;;589.40;1843.20;;;;;;5072413;28;20161;-60
2021/08/16 01:31:21;;;;;;;21.20;18.33;;;589.50;1817.60;;;;;;5073092;28;20056;-60
2021/08/16 01:33:47;;;;;;;26.17;19.25;;;589.50;1817.60;;;;;;5072599;28;20021;-57
2021/08/16 01:36:13;;;;;;;27.90;17.80;;;589.50;1817.60;;;;;;5072569;28;20036;-58
2021/08/16 01:38:43;;;;;;;18.38;14.50;;;589.60;1792.00;;;;;;5072754;28;20048;-58
2021/08/16 01:41:09;;;;;;;18.98;12.43;;;589.50;1843.20;;;;;;5072754;28;20016;-59
2021/08/16 01:43:35;;;;;;;13.30;11.90;;;589.50;1843.20;;;;;;5072356;28;20501;-63
2021/08/16 01:46:01;;;;;;;17.13;12.52;;;589.40;1843.20;;;;;;5072120;28;20079;-58
2021/08/16 01:48:27;;;;;;;14.10;11.38;;;589.40;1817.60;;;;;;5072053;28;20021;-60
2021/08/16 01:50:53;;;;;;;16.23;11.50;;;589.40;1817.60;;;;;;5072588;28;20111;-58
2021/08/16 01:53:19;;;;;;;24.30;13.07;;;589.40;1817.60;;;;;;5071153;28;20032;-58
2021/08/16 01:55:45;;;;;;;14.77;13.05;;;589.60;1792.00;;;;;;5071891;28;20404;-61
2021/08/16 01:58:10;;;;;;;15.40;13.20;;;589.50;1817.60;;;;;;5072635;28;20032;-59
2021/08/16 02:00:37;;;;;;;16.92;13.70;;;589.50;1817.60;;;;;;5072061;28;20016;-58
2021/08/16 02:03:03;;;;;;;14.80;12.18;;;589.40;1817.60;;;;;;5072358;28;20033;-57
2021/08/16 02:05:29;;;;;;;11.68;10.48;;;589.30;1817.60;;;;;;5072200;28;20047;-57
2021/08/16 02:07:58;;;;;;;13.93;10.27;;;589.30;1817.60;;;;;;5072193;28;20460;-56
2021/08/16 02:10:24;;;;;;;11.48;9.85;;;589.30;1817.60;;;;;;5072226;28;20154;-59
2021/08/16 02:12:49;;;;;;;10.75;9.73;;;589.20;1843.20;;;;;;5071633;28;20044;-61
2021/08/16 02:15:15;;;;;;;10.85;9.73;;;589.00;1868.80;;;;;;5071765;28;20542;-58
2021/08/16 02:17:41;;;;;;;10.25;8.77;;;588.80;1894.40;;;;;;5071857;28;20032;-58
2021/08/16 02:20:08;;;;;;;11.02;9.02;;;588.90;1894.40;;;;;;5071633;28;20024;-57
2021/08/16 02:22:34;;;;;;;11.73;9.45;;;589.00;1868.80;;;;;;5071994;28;20106;-57
2021/08/16 02:24:59;;;;;;;12.52;9.77;;;588.90;1868.80;;;;;;5071479;28;20511;-57
2021/08/16 02:27:25;;;;;;;10.40;8.48;;;588.90;1868.80;;;;;;5071573;28;20048;-57
2021/08/16 02:29:51;;;;;;;10.77;9.27;;;588.90;1868.80;;;;;;5071696;28;20022;-57
2021/08/16 02:32:17;;;;;;;12.20;9.50;;;588.90;1868.80;;;;;;5071402;28;20082;-55
2021/08/16 02:34:43;;;;;;;12.98;9.57;;;589.00;1868.80;;;;;;5071561;28;20025;-56
2021/08/16 02:37:09;;;;;;;12.10;10.23;;;589.00;1868.80;;;;;;5071465;28;20463;-57
2021/08/16 02:39:35;;;;;;;9.77;8.75;;;589.00;1868.80;;;;;;5071101;28;20031;-56
2021/08/16 02:42:00;;;;;;;10.27;9.18;;;588.90;1868.80;;;;;;5071473;28;20020;-56
2021/08/16 02:44:26;;;;;;;12.57;8.52;;;588.80;1920.00;;;;;;5071254;28;20035;-58
2021/08/16 02:46:52;;;;;;;13.05;9.70;;;564.10;1920.00;;;;;;5071496;28;20025;-57
2021/08/16 02:49:18;;;;;;;11.27;9.45;;;564.00;1945.60;;;;;;5070980;28;20024;-57
2021/08/16 02:51:44;;;;;;;10.40;8.38;;;563.90;1945.60;;;;;;5071265;28;20025;-58
2021/08/16 02:54:09;;;;;;;10.30;9.18;;;563.90;1945.60;;;;;;5070587;28;20424;-56
2021/08/16 02:56:35;;;;;;;12.93;9.38;;;563.90;1920.00;;;;;;5070847;28;20041;-57
2021/08/16 02:59:01;;;;;;;10.43;9.00;;;563.90;1945.60;;;;;;5071101;28;20060;-57
2021/08/16 03:01:27;;;;;;;12.32;8.88;;;563.90;1971.20;;;;;;5070611;28;20040;-57
2021/08/16 03:03:52;;;;;;;10.50;9.40;;;563.90;1945.60;;;;;;5070883;28;20024;-58
2021/08/16 03:06:18;;;;;;;10.65;8.30;;;564.00;1920.00;;;;;;5070728;28;20032;-56
2021/08/16 03:08:44;;;;;;;12.65;8.95;;;564.00;1945.60;;;;;;5070706;28;20029;-56
2021/08/16 03:11:09;;;;;;;15.02;9.43;;;564.00;1920.00;;;;;;5070984;28;20024;-56
2021/08/16 03:13:35;;;;;;;10.25;8.82;;;564.00;1920.00;;;;;;5070592;28;20497;-56
2021/08/16 03:16:02;;;;;;;14.32;10.05;;;564.00;1920.00;;;;;;5070952;28;20028;-55
2021/08/16 03:18:27;;;;;;;10.80;9.57;;;564.00;1894.40;;;;;;5070564;28;20037;-56
2021/08/16 03:20:53;;;;;;;13.27;10.07;;;564.00;1920.00;;;;;;5071010;28;20031;-57
2021/08/16 03:23:20;;;;;;;11.40;9.50;;;564.00;1920.00;;;;;;5070039;28;20471;-55
2021/08/16 03:25:46;;;;;;;17.58;10.23;;;563.90;1945.60;;;;;;5070023;28;20035;-57
2021/08/16 03:28:12;;;;;;;10.20;9.18;;;563.70;1971.20;;;;;;5070963;28;20029;-56
2021/08/16 03:30:37;;;;;;;14.52;9.10;;;563.50;2022.40;;;;;;5070379;28;20085;-57
2021/08/16 03:33:03;;;;;;;12.48;9.93;;;563.50;2048.00;;;;;;5070314;28;20063;-57
2021/08/16 03:35:29;;;;;;;16.77;9.25;;;563.40;2048.00;;;;;;5070525;28;20032;-59
2021/08/16 03:37:55;;;;;;;11.75;9.55;;;563.30;2048.00;;;;;;5070230;28;20057;-60
2021/08/16 03:40:20;;;;;;;9.80;8.68;;;563.30;2073.60;;;;;;5070300;28;20070;-57
2021/08/16 03:42:46;;;;;;;12.38;10.43;;;563.30;2073.60;;;;;;5070779;28;20068;-57
2021/08/16 03:45:19;;;;;;;13.52;9.90;;;563.20;2073.60;;;;;;5072377;28;20024;-57
2021/08/16 03:47:46;;;;;;;10.00;9.02;;;563.20;2073.60;;;;;;5070294;28;20040;-57
2021/08/16 03:50:12;;;;;;;12.90;10.20;;;538.50;2073.60;;;;;;5071796;28;20036;-59
2021/08/16 03:52:38;;;;;;;9.82;8.75;;;538.50;2073.60;;;;;;5071625;28;20048;-58
2021/08/16 03:55:05;;;;;;;13.25;9.55;;;538.50;2099.20;;;;;;5070870;28;20515;-57
2021/08/16 03:57:30;;;;;;;14.40;9.43;;;538.50;2124.80;;;;;;5070248;28;20044;-55
2021/08/16 03:59:56;;;;;;;14.93;9.43;;;538.40;2124.80;;;;;;5069942;28;20047;-57
2021/08/16 04:02:22;;;;;;;14.65;9.43;;;538.50;2124.80;;;;;;5070501;28;20029;-56
2021/08/16 04:04:48;;;;;;;12.00;9.98;;;538.50;2124.80;;;;;;5070204;28;20067;-57
2021/08/16 04:07:13;;;;;;;11.30;9.35;;;538.50;2099.20;;;;;;5070234;28;20534;-57
2021/08/16 04:09:39;;;;;;;11.27;9.20;;;563.20;2124.80;;;;;;5070284;28;20393;-58
2021/08/16 04:12:05;;;;;;;11.70;9.55;;;563.40;2099.20;;;;;;5077494;28;20119;-58
2021/08/16 04:14:31;;;;;;;11.05;9.30;;;563.40;2099.20;;;;;;5076905;28;20013;-57
2021/08/16 04:16:57;;;;;;;12.65;11.20;;;563.30;2124.80;;;;;;5077888;28;20039;-62
2021/08/16 04:19:23;;;;;;;13.52;9.63;;;563.50;2124.80;;;;;;5079319;28;20021;-73
2021/08/16 04:21:48;;;;;;;12.50;10.25;;;563.20;2150.40;;;;;;5077795;28;20077;-64
2021/08/16 04:24:14;;;;;;;16.58;10.63;;;563.30;2150.40;;;;;;5073770;28;20060;-61
2021/08/16 04:26:40;;;;;;;11.30;9.77;;;563.30;2150.40;;;;;;5070774;28;20056;-58
2021/08/16 04:29:06;;;;;;;14.60;10.02;;;563.30;2150.40;;;;;;5071528;28;20020;-58
2021/08/16 04:31:32;;;;;;;12.25;9.88;;;563.40;2124.80;;;;;;5071391;28;20017;-56
2021/08/16 04:33:58;;;;;;;14.23;9.35;;;563.50;2124.80;;;;;;5071741;28;20041;-58
2021/08/16 04:36:23;;;;;;;9.98;8.95;;;563.70;2099.20;;;;;;5075491;28;20378;-58
2021/08/16 04:38:49;;;;;;;11.40;9.65;;;563.80;2048.00;;;;;;5075012;28;20039;-57
2021/08/16 04:41:15;;;;;;;12.90;10.13;;;564.00;2048.00;;;;;;5073650;28;20031;-57
2021/08/16 04:43:41;;;;;;;11.13;9.95;;;564.10;2048.00;;;;;;5073988;28;20033;-57
2021/08/16 04:46:06;;;;;;;13.90;9.57;;;564.10;2048.00;;;;;;5074094;28;20078;-57
2021/08/16 04:48:32;;;;;;;12.13;10.80;;;564.10;2048.00;;;;;;5072787;28;20028;-56
2021/08/16 04:50:58;;;;;;;11.80;10.70;;;589.20;2022.40;;;;;;5073457;28;20534;-57
2021/08/16 04:53:23;;;;;;;13.90;10.82;;;666.00;1740.80;;;;;;5074361;28;20028;-57
2021/08/16 04:55:49;;;;;;;15.35;10.57;;;717.40;1561.60;;;;;;5073436;28;20449;-57
2021/08/16 04:58:15;;;;;;;14.15;10.88;;;768.10;1459.20;;;;;;5073257;28;20082;-57
2021/08/16 05:00:40;;;;;;;16.67;10.88;;;793.60;1408.00;;;;;;5073501;28;20377;-57
2021/08/16 05:03:08;;;;;;;20.83;11.52;;;819.60;1331.20;;;;;;5073954;28;20029;-57
2021/08/16 05:05:34;;;;;;;15.50;13.30;;;844.80;1280.00;;;;;;5073540;28;20471;-58
2021/08/16 05:08:00;;;;;;;15.80;13.10;;;870.40;1254.40;;;;;;5073531;28;20032;-58
2021/08/16 05:10:28;;;;;;;13.18;11.95;;;870.70;1203.20;;;;;;5073118;28;20036;-57
2021/08/16 05:12:56;;;;;;;14.75;13.23;;;871.00;1203.20;;;;;;5073093;28;20046;-57
2021/08/16 05:15:22;;;;;;;12.10;10.93;;;896.10;1152.00;;;;;;5073114;28;20032;-57
2021/08/16 05:17:49;;;;;;;13.00;11.70;;;870.70;1203.20;;;;;;5072875;28;20607;-57
2021/08/16 05:20:16;;;;;;;13.85;12.55;;;896.50;1126.40;;;;;;5073014;28;20025;-57
2021/08/16 05:22:43;;;;;;;14.48;13.10;;;921.90;1126.40;;;;;;5073019;28;20020;-57
2021/08/16 05:25:10;;;;;;;13.45;12.00;;;947.20;1075.20;;;;;;5072970;28;20078;-57
2021/08/16 05:27:36;;;;;;;15.73;13.05;;;948.10;1024.00;;;;;;5072681;28;20037;-57
2021/08/16 05:30:03;;;;;;;15.75;11.57;;;973.60;998.40;;;;;;5073042;28;20027;-57
2021/08/16 05:32:30;;;;;;;14.10;12.85;;;973.20;998.40;;;;;;5072771;28;20115;-58
2021/08/16 05:34:56;;;;;;;12.63;11.63;;;948.10;998.40;;;;;;5072599;28;20028;-58
2021/08/16 05:37:22;;;;;;;13.65;12.27;;;998.90;972.80;;;;;;5073133;28;20104;-57
2021/08/16 05:39:48;;;;;;;14.63;12.43;;;1024.50;947.20;;;;;;5070115;28;20021;-59
2021/08/16 05:42:15;;;;;;;13.95;12.75;;;1050.10;921.60;;;;;;5071104;28;20439;-58
2021/08/16 05:44:41;;;;;;;12.77;11.55;;;1050.50;921.60;;;;;;5070978;28;20028;-59
2021/08/16 05:47:06;;;;;;;14.98;11.93;;;1050.30;947.20;;;;;;5069575;28;20028;-57
2021/08/16 05:49:33;;;;;;;13.23;11.95;;;1050.50;921.60;;;;;;5070867;28;20029;-58
2021/08/16 05:51:59;;;;;;;13.40;12.25;;;;;;;;;;5070264;28;20028;-60
2021/08/16 05:54:25;;;;;;;13.68;12.43;;;;;;;;;;5070490;28;20115;-59
2021/08/16 05:56:51;;;;;;;15.88;14.20;;;;;;;;;;5070781;28;20051;-56
2021/08/16 05:59:17;;;;;;;15.25;13.95;;;;;;;;;;5070434;28;20025;-58
2021/08/16 06:01:43;;;;;;;15.05;13.30;;;1075.80;896.00;;;;;;5070868;28;20035;-57
2021/08/16 06:04:10;;;;;;;15.65;14.40;;;;;;;;;;5070458;28;20017;-57
2021/08/16 06:06:36;;;;;;;14.88;13.73;;;1101.00;870.40;;;;;;5070201;28;20082;-58
2021/08/16 06:09:03;;;;;;;17.45;15.95;;;1101.00;870.40;;;;;;5070630;28;20094;-58
2021/08/16 06:11:29;;;;;;;17.02;15.55;;;1075.90;870.40;;;;;;5070558;28;20021;-58
2021/08/16 06:13:55;;;;;;;18.23;16.85;;;1075.70;870.40;;;;;;5070315;28;20107;-58
2021/08/16 06:16:21;;;;;;;20.10;18.58;;;1075.70;870.40;;;;;;5070325;28;20029;-60
2021/08/16 06:18:47;;;;;;;31.13;20.10;;;1075.90;844.80;;;;;;5069647;28;20036;-58
2021/08/16 06:21:13;;;;;;;18.20;16.67;;;1101.00;870.40;;;;;;5070291;28;20033;-58
2021/08/16 06:23:39;;;;;;;18.15;16.58;;;1100.90;870.40;;;;;;5070007;28;20028;-58
2021/08/16 06:26:05;;;;;;;18.85;17.45;;;1101.50;844.80;;;;;;5069981;28;20086;-62
2021/08/16 06:28:31;;;;;;;21.27;19.05;;;1101.50;844.80;;;;;;5070417;28;20035;-59
2021/08/16 06:30:57;;;;;;;19.50;18.08;;;1126.60;844.80;;;;;;5071803;28;20497;-60
2021/08/16 06:33:23;;;;;;;19.77;18.08;;;1126.80;844.80;;;;;;5072002;28;20035;-58
2021/08/16 06:35:50;;;;;;;20.20;18.60;;;1152.50;819.20;;;;;;5071679;28;20024;-59
2021/08/16 06:40:53;;;;;;;22.92;21.23;;;1152.90;793.60;;;;;;5071468;28;20106;-59
2021/08/16 06:43:20;;;;;;;22.13;20.50;;;1177.60;793.60;;;;;;5071480;28;20028;-58
2021/08/16 06:45:46;;;;;;;20.98;19.48;;;1178.20;768.00;;;;;;5071158;28;20378;-60
2021/08/16 06:48:13;;;;;;;21.85;20.25;;;1203.70;768.00;;;;;;5071340;28;20025;-59
2021/08/16 06:50:40;;;;;;;21.60;19.92;;;1203.80;742.40;;;;;;5071295;28;20020;-59
2021/08/16 06:53:07;;;;;;;21.45;19.88;;;1229.20;742.40;;;;;;5071063;28;20039;-59
2021/08/16 06:55:32;;;;;;;21.15;19.77;;;1229.70;691.20;;;;;;5070798;28;20044;-60
2021/08/16 06:57:58;;;;;;;21.05;19.75;;;1229.40;742.40;;;;;;5070729;28;20036;-58
2021/08/16 07:00:24;;;;;;;20.33;18.92;;;1254.40;742.40;;;;;;5070729;28;20021;-59
2021/08/16 07:02:50;;;;;;;21.08;19.63;;;1255.10;742.40;;;;;;5071118;28;20502;-58
2021/08/16 07:05:15;;;;;;;21.45;20.05;;;1280.00;691.20;;;;;;5071013;28;20526;-59
2021/08/16 07:07:41;;;;;;;22.23;20.73;;;1280.00;716.80;;;;;;5070942;28;20020;-59
2021/08/16 07:10:08;;;;;;;21.42;20.05;;;1255.30;716.80;;;;;;5070766;28;20116;-59
2021/08/16 07:12:33;;;;;;;21.15;19.33;;;1254.90;716.80;;;;;;5071037;28;20066;-58
2021/08/16 07:14:59;;;;;;;22.50;20.60;;;1255.10;716.80;;;;;;5075779;28;20388;-57
2021/08/16 07:17:25;;;;;;;21.40;19.95;;;1254.50;742.40;;;;;;5090795;28;20043;-59
2021/08/16 07:19:51;;;;;;;20.90;19.40;;;1254.90;716.80;;;;;;5090820;28;20047;-59
2021/08/16 07:22:17;;;;;;;20.40;19.20;;;1255.10;716.80;;;;;;5085141;28;20097;-59
2021/08/16 07:24:43;;;;;;;20.42;18.92;;;1255.30;691.20;;;;;;5080826;28;20021;-59
2021/08/16 07:27:09;;;;;;;21.20;19.33;;;1255.10;691.20;;;;;;5083527;28;20032;-59
2021/08/16 07:29:35;;;;;;;19.52;18.00;;;1280.50;691.20;;;;;;5070310;28;20115;-59
2021/08/16 07:32:00;;;;;;;19.95;18.70;;;1280.90;665.60;;;;;;5070530;28;20035;-58
2021/08/16 07:34:26;;;;;;;18.80;17.60;;;1280.50;665.60;;;;;;5070557;28;20098;-59
2021/08/16 07:36:54;;;;;;;21.17;19.40;;;1280.50;691.20;;;;;;5070785;28;20048;-58
2021/08/16 07:39:23;;;;;;;21.27;19.35;;;1280.20;691.20;;;;;;5081671;28;20035;-58
2021/08/16 07:41:49;;;;;;;20.48;19.08;;;1255.10;691.20;;;;;;5081186;28;20024;-61
2021/08/16 07:44:15;;;;;;;20.30;18.85;;;1255.00;691.20;;;;;;5086917;28;20055;-58
2021/08/16 07:46:42;;;;;;;18.33;16.95;;;1280.70;640.00;;;;;;5074656;28;20463;-57
2021/08/16 07:49:07;;;;;;;19.52;18.25;;;1306.00;614.40;;;;;;5077228;28;20024;-58
2021/08/16 07:51:34;;;;;;;20.08;18.83;;;1305.70;614.40;;;;;;5073581;28;20020;-61
2021/08/16 07:53:59;;;;;;;19.85;18.58;;;1306.50;563.20;;;;;;5073742;28;20085;-58
2021/08/16 07:56:25;;;;;;;20.92;19.13;;;1306.00;614.40;;;;;;5073004;28;20049;-59
2021/08/16 07:58:51;;;;;;;20.38;18.80;;;1306.50;588.80;;;;;;5073399;28;20024;-59
2021/08/16 08:04:38;;;;;;;22.38;20.38;;;1331.70;563.20;;;;;;5073252;28;20051;-57
2021/08/16 08:07:04;;;;;;;21.00;19.40;;;1356.80;563.20;;;;;;5073441;28;20034;-57
2021/08/16 08:09:31;;;;;;;21.30;19.90;;;1332.10;537.60;;;;;;5072933;28;20032;-58
2021/08/16 08:11:58;;;;;;;21.30;19.92;;;1332.10;537.60;;;;;;5072887;28;20031;-58
2021/08/16 08:14:24;;;;;;;20.55;18.95;;;1356.90;563.20;;;;;;5072995;28;20441;-59
2021/08/16 08:20:12;;;;;;;21.13;19.70;;;1357.40;537.60;;;;;;5073341;28;20152;-57
2021/08/16 08:22:39;;;;;;;21.40;19.73;;;1356.90;563.20;;;;;;5072851;28;20386;-63
2021/08/16 08:25:05;;;;;;;20.40;19.00;;;1331.20;563.20;;;;;;5072982;28;20111;-58
2021/08/16 08:27:31;;;;;;;20.48;19.00;;;1306.20;563.20;;;;;;5073235;28;20508;-58
2021/08/16 08:29:56;;;;;;;21.65;19.85;;;1331.20;563.20;;;;;;5072792;28;20125;-61
2021/08/16 08:35:46;;;;;;;20.15;18.20;;;1306.20;537.60;;;;;;5072991;28;20036;-58
2021/08/16 08:38:12;;;;;;;19.88;18.20;;;1280.70;563.20;;;;;;5072746;28;20033;-58
2021/08/16 08:40:39;;;;;;;18.77;17.48;;;1254.50;614.40;;;;;;5072894;28;20021;-60
2021/08/16 08:43:08;;;;;;;16.20;14.75;;;1178.10;614.40;;;;;;5072779;28;20024;-56
2021/08/16 08:45:35;;;;;;;15.88;14.52;;;1152.20;640.00;;;;;;5072825;28;20040;-61
2021/08/16 08:51:22;;;;;;;15.07;13.43;;;1100.80;716.80;;;;;;5072741;28;20035;-57
2021/08/16 08:53:51;;;;;;;15.80;14.30;;;1075.60;716.80;;;;;;5072890;28;20024;-58
2021/08/16 08:56:17;;;;;;;14.52;13.20;;;1075.50;716.80;;;;;;5072379;28;20052;-59
2021/08/16 08:58:42;;;;;;;13.90;12.50;;;1050.20;768.00;;;;;;5072979;28;20039;-58
2021/08/16 09:01:08;;;;;;;12.77;11.57;;;1050.10;742.40;;;;;;5072803;28;20074;-57
2021/08/16 09:03:34;;;;;;;15.80;12.70;;;1049.80;768.00;;;;;;5072595;28;20032;-56
2021/08/16 09:06:02;;;;;;;14.32;12.55;;;1024.70;768.00;;;;;;5072498;28;20021;-57
2021/08/16 09:08:31;;;;;;;13.25;11.48;;;1024.90;768.00;;;;;;5072772;28;20024;-58
2021/08/16 09:11:12;;;;;;;12.50;11.40;;;1024.30;793.60;;;;;;5072801;28;20043;-61
2021/08/16 09:13:57;;;;;;;13.48;12.15;;;1024.10;793.60;;;;;;5070952;28;20371;-61
2021/08/16 09:16:25;;;;;;;16.60;13.15;;;1024.10;793.60;;;;;;5072736;28;20021;-57
2021/08/16 09:18:51;;;;;;;11.63;10.45;;;999.30;819.20;;;;;;5072280;28;20478;-62
2021/08/16 09:21:40;;;;;;;12.57;11.43;;;1024.10;819.20;;;;;;5072607;28;20036;-57
2021/08/16 09:24:06;;;;;;;12.85;10.93;;;999.20;819.20;;;;;;5075765;28;20056;-58
2021/08/16 09:26:40;;;;;;;12.52;11.25;;;999.10;844.80;;;;;;5075670;28;20079;-61
2021/08/16 09:29:17;;;;;;;13.38;11.88;;;998.80;844.80;;;;;;5074228;28;20064;-56
2021/08/16 09:32:00;;;;;;;12.88;11.63;;;998.70;870.40;;;;;;5076078;28;20028;-55
2021/08/16 09:34:32;;;;;;;12.95;11.57;;;998.90;844.80;;;;;;5075998;28;20028;-58
2021/08/16 09:37:01;;;;;;;14.10;12.27;;;999.00;844.80;;;;;;5075842;28;20029;-58
2021/08/16 09:39:29;;;;;;;15.63;11.95;;;998.80;870.40;;;;;;5075626;28;20050;-55
2021/08/16 09:42:03;;;;;;;15.15;13.05;;;998.80;870.40;;;;;;5075680;28;20025;-60
2021/08/16 09:44:30;;;;;;;12.48;11.15;;;998.60;870.40;;;;;;5075787;28;20049;-56
2021/08/16 09:47:03;;;;;;;13.02;10.25;;;998.60;870.40;;;;;;5075887;28;20359;-57
2021/08/16 09:49:29;;;;;;;19.33;12.13;;;998.40;870.40;;;;;;5075493;28;20048;-57
2021/08/16 09:52:11;;;;;;;12.57;10.45;;;998.60;870.40;;;;;;5075791;28;20105;-58
2021/08/16 09:54:39;;;;;;;11.32;10.23;;;998.60;896.00;;;;;;5075376;28;20102;-58
2021/08/16 09:57:06;;;;;;;12.00;10.27;;;998.40;870.40;;;;;;5075549;28;20044;-58
2021/08/16 09:59:33;;;;;;;10.48;9.38;;;998.40;870.40;;;;;;5075493;28;20129;-57
2021/08/16 10:01:59;;;;;;;11.23;10.10;;;998.50;870.40;;;;;;5075388;28;20028;-57
2021/08/16 10:04:25;;;;;;;11.15;10.07;;;998.60;870.40;;;;;;5075504;28;20012;-57
2021/08/16 10:06:55;;;;;;;13.07;9.65;;;973.70;844.80;;;;;;5075732;28;20029;-57
2021/08/16 10:09:24;;;;;;;10.75;9.30;;;973.70;844.80;;;;;;5075372;28;20044;-58
2021/08/16 10:11:50;;;;;;;12.48;9.13;;;998.40;896.00;;;;;;5074856;28;20111;-57
2021/08/16 10:14:19;;;;;;;10.63;9.60;;;973.70;844.80;;;;;;5074864;28;20423;-58
2021/08/16 10:16:48;;;;;;;13.50;9.85;;;998.50;870.40;;;;;;5074884;28;20413;-58
2021/08/16 10:19:24;;;;;;;13.07;9.80;;;973.70;844.80;;;;;;5074637;28;20108;-58
2021/08/16 10:21:51;;;;;;;12.90;9.13;;;973.70;844.80;;;;;;5074725;28;20070;-58
2021/08/16 10:24:25;;;;;;;11.15;9.57;;;998.40;870.40;;;;;;5074389;28;20067;-58
2021/08/16 10:27:04;;;;;;;15.35;9.93;;;973.60;844.80;;;;;;5073197;28;20041;-57
2021/08/16 10:29:31;;;;;;;13.25;10.82;;;973.60;844.80;;;;;;5074559;28;20490;-58
2021/08/16 10:31:59;;;;;;;13.07;9.98;;;973.60;870.40;;;;;;5074998;28;20528;-61
2021/08/16 10:34:36;;;;;;;14.13;10.48;;;973.50;844.80;;;;;;5074381;28;20029;-60
2021/08/16 10:37:10;;;;;;;12.32;11.10;;;973.20;870.40;;;;;;5074170;28;20033;-60
2021/08/16 10:39:45;;;;;;;14.02;10.38;;;973.20;896.00;;;;;;5074580;28;20063;-60
2021/08/16 10:42:18;;;;;;;18.60;9.52;;;973.20;896.00;;;;;;5074912;28;20017;-58
2021/08/16 10:44:45;;;;;;;14.07;10.32;;;973.20;896.00;;;;;;5074202;28;20104;-59
2021/08/16 10:47:12;;;;;;;11.50;9.25;;;;;;;;;;5074188;28;20020;-58
2021/08/16 10:49:40;;;;;;;11.18;9.65;;;973.20;896.00;;;;;;5074354;28;20024;-58
2021/08/16 10:52:19;;;;;;;10.45;9.40;;;973.10;921.60;;;;;;5073973;28;20017;-63
2021/08/16 10:54:45;;;;;;;13.82;10.23;;;973.10;896.00;;;;;;5073762;28;20135;-57
2021/08/16 10:57:11;;;;;;;17.25;9.15;;;973.10;870.40;;;;;;5074062;28;20166;-59
2021/08/16 10:59:38;;;;;;;9.90;9.05;;;973.10;870.40;;;;;;5074153;28;20089;-59
2021/08/16 11:02:04;;;;;;;13.10;9.55;;;973.20;870.40;;;;;;5074011;28;20028;-56
2021/08/16 11:04:34;;;;;;;10.18;8.68;;;973.10;896.00;;;;;;5073978;28;20025;-58
2021/08/16 11:07:05;;;;;;;11.32;8.95;;;948.10;870.40;;;;;;5073977;28;20028;-62
2021/08/16 11:09:35;;;;;;;17.25;8.93;;;972.90;896.00;;;;;;5073963;28;20036;-60
2021/08/16 11:12:05;;;;;;;13.20;9.57;;;972.90;870.40;;;;;;5073880;28;20052;-59
2021/08/16 11:14:33;;;;;;;13.65;8.60;;;973.10;870.40;;;;;;5073713;28;20035;-60
2021/08/16 11:16:59;;;;;;;14.60;8.40;;;973.10;870.40;;;;;;5073640;28;20436;-60
2021/08/16 11:19:26;;;;;;;10.70;9.13;;;973.10;870.40;;;;;;5073373;28;20024;-57
2021/08/16 11:21:57;;;;;;;11.05;8.82;;;973.10;870.40;;;;;;5073324;28;20035;-57
2021/08/16 11:24:31;;;;;;;12.80;9.20;;;973.10;870.40;;;;;;5073620;28;20115;-63
2021/08/16 11:26:57;;;;;;;10.77;8.85;;;973.00;844.80;;;;;;5073590;28;20409;-63
2021/08/16 11:29:24;;;;;;;10.45;9.13;;;973.10;844.80;;;;;;5073224;28;20025;-60
2021/08/16 11:31:58;;;;;;;11.63;8.55;;;973.10;870.40;;;;;;5073463;28;20032;-60
2021/08/16 11:34:25;;;;;;;11.60;9.25;;;973.20;870.40;;;;;;5073791;28;20021;-59
2021/08/16 11:36:51;;;;;;;13.25;9.38;;;973.20;844.80;;;;;;5073191;28;20075;-63
2021/08/16 11:39:30;;;;;;;10.02;9.00;;;973.20;844.80;;;;;;5073312;28;20052;-59
2021/08/16 11:42:00;;;;;;;12.85;8.93;;;973.20;870.40;;;;;;5073319;28;20023;-57
2021/08/16 11:44:28;;;;;;;11.45;9.07;;;973.40;844.80;;;;;;5072767;28;20032;-60
2021/08/16 11:46:57;;;;;;;11.48;9.60;;;973.20;844.80;;;;;;5073160;28;20039;-62
2021/08/16 11:49:25;;;;;;;12.73;9.52;;;973.20;844.80;;;;;;5073157;28;20063;-61
2021/08/16 11:51:51;;;;;;;12.90;10.48;;;973.40;844.80;;;;;;5073469;28;20032;-62
2021/08/16 11:54:35;;;;;;;15.55;9.13;;;973.50;844.80;;;;;;5073093;28;20474;-62
2021/08/16 11:57:06;;;;;;;12.48;9.98;;;973.60;844.80;;;;;;5073405;28;20435;-61
2021/08/16 11:59:33;;;;;;;11.13;9.93;;;973.40;819.20;;;;;;5073102;28;20059;-62
2021/08/16 12:02:05;;;;;;;13.32;10.18;;;973.20;844.80;;;;;;5073285;28;20466;-62
2021/08/16 12:04:37;;;;;;;13.32;8.48;;;973.20;844.80;;;;;;5073022;28;20162;-59
2021/08/16 12:07:04;;;;;;;14.77;10.30;;;973.40;844.80;;;;;;5073027;28;20044;-59
2021/08/16 12:09:35;;;;;;;14.23;9.45;;;973.40;819.20;;;;;;5071338;28;20127;-61
2021/08/16 12:12:05;;;;;;;11.10;9.55;;;973.20;819.20;;;;;;5072181;28;20021;-62
2021/08/16 12:14:36;;;;;;;11.27;9.40;;;973.40;819.20;;;;;;5070112;28;20024;-59
2021/08/16 12:17:03;;;;;;;11.55;9.35;;;973.40;819.20;;;;;;5069651;28;20036;-61
2021/08/16 12:19:30;;;;;;;10.35;9.35;;;973.20;819.20;;;;;;5069522;28;20408;-57
2021/08/16 12:22:10;;;;;;;10.77;8.73;;;973.10;819.20;;;;;;5070020;28;20093;-62
2021/08/16 12:24:40;;;;;;;13.13;9.27;;;972.80;819.20;;;;;;5069692;28;20433;-61